Aviation Digital Data Service (ADDS)

Output produced by METARs form (0344 UTC 23 November 2017)
found at http://www.aviationweather.gov/adds/metars/
 
TAF MHLC 222225Z 2300/2324 35004KT 8000 VCSH SCT024TCU SCT080 TX30/2320Z TN21/2312Z 
     BECMG 2306/2308 00000KT 9999 NSW SCT024 
     BECMG 2315/2317 35004KT
       
TAF MHLM 222225Z 2300/2324 36010KT 8000 VCSH SCT024 SCT080 TX31/2321Z TN21/2312Z 
     BECMG2306/2308 00000KT 9999 NSW SCT024 SCT080 
     BECMG 2315/2317 28006KT
       
TAF MHRO 222225Z 2300/2324 00000KT 9999 SCT024 TX29/2318Z TN25/2312Z 
     BECMG 2302/2304 00000KT 
     BECMG 2314/2316 35004KT 6000 VCSH SC020TCU SCT080 
     BECMG 2318/2320 9999 NSW
       
TAF MHSC 2221/2403 34006KT 9999 VCSH FEW020 BKN090 QNH2987INS 
     BECMG 2222/2223 34009KT 9000 -SHRA SCT020 BKN050 QNH2989INS 
     BECMG 2300/2301 35009KT 9999 NSW SCT100 QNH2997INS 
     BECMG 2305/2306 35006KT 8000 BR SCT005 BKN010 OVC150 QNH3000INS 
     TEMPO 2308/2315 1600 BR OVC005 
     BECMG 2315/2316 35009KT 9999 NSW FEW010 BKN020 OVC120 QNH3001INS 
     BECMG 2317/2318 35010G15KT 9999 SCT030 BKN100 QNH3000INS 
     BECMG 2401/2402 35009KT 9999 BKN060 OVC100 QNH2998INS TX29/2221Z TN17/2310Z
       
TAF MHTG 222225Z 2300/2324 36004KT 8000 VCSH SCT028TCU FEW030CB SCT080 TX28/2320Z TN13/2312Z 
     BECMG 2306/2308 9999 NSW SCT024 SCT070 
     BECMG 2315/2317 SCT028 
     BECMG 2319/2321 SCT032
       
TAF MHSC 2221/2403 34006KT 9999 VCSH FEW020 BKN090 QNH2987INS 
     BECMG 2222/2223 34009KT 9000 -SHRA SCT020 BKN050 QNH2989INS 
     BECMG 2300/2301 35009KT 9999 NSW SCT100 QNH2997INS 
     BECMG 2305/2306 35006KT 8000 BR SCT005 BKN010 OVC150 QNH3000INS 
     TEMPO 2308/2315 1600 BR OVC005 
     BECMG 2315/2316 35009KT 9999 NSW FEW010 BKN020 OVC120 QNH3001INS 
     BECMG 2317/2318 35010G15KT 9999 SCT030 BKN100 QNH3000INS 
     BECMG 2401/2402 35009KT 9999 BKN060 OVC100 QNH2998INS TX29/2221Z TN17/2310Z
       
TAF MHLC 222225Z 2300/2324 35004KT 8000 VCSH SCT024TCU SCT080 TX30/2320Z TN21/2312Z 
     BECMG 2306/2308 00000KT 9999 NSW SCT024 
     BECMG 2315/2317 35004KT
       
TAF MHLM 222225Z 2300/2324 36010KT 8000 VCSH SCT024 SCT080 TX31/2321Z TN21/2312Z 
     BECMG2306/2308 00000KT 9999 NSW SCT024 SCT080 
     BECMG 2315/2317 28006KT
       
TAF MHRO 222225Z 2300/2324 00000KT 9999 SCT024 TX29/2318Z TN25/2312Z 
     BECMG 2302/2304 00000KT 
     BECMG 2314/2316 35004KT 6000 VCSH SC020TCU SCT080 
     BECMG 2318/2320 9999 NSW
       
TAF MHSC 2221/2403 34006KT 9999 VCSH FEW020 BKN090 QNH2987INS 
     BECMG 2222/2223 34009KT 9000 -SHRA SCT020 BKN050 QNH2989INS 
     BECMG 2300/2301 35009KT 9999 NSW SCT100 QNH2997INS 
     BECMG 2305/2306 35006KT 8000 BR SCT005 BKN010 OVC150 QNH3000INS 
     TEMPO 2308/2315 1600 BR OVC005 
     BECMG 2315/2316 35009KT 9999 NSW FEW010 BKN020 OVC120 QNH3001INS 
     BECMG 2317/2318 35010G15KT 9999 SCT030 BKN100 QNH3000INS 
     BECMG 2401/2402 35009KT 9999 BKN060 OVC100 QNH2998INS TX29/2221Z TN17/2310Z
       
TAF MHTG 222225Z 2300/2324 36004KT 8000 VCSH SCT028TCU FEW030CB SCT080 TX28/2320Z TN13/2312Z 
     BECMG 2306/2308 9999 NSW SCT024 SCT070 
     BECMG 2315/2317 SCT028 
     BECMG 2319/2321 SCT032
       
TAF MHLC 222225Z 2300/2324 35004KT 8000 VCSH SCT024TCU SCT080 TX30/2320Z TN21/2312Z 
     BECMG 2306/2308 00000KT 9999 NSW SCT024 
     BECMG 2315/2317 35004KT
       
TAF MHLM 222225Z 2300/2324 36010KT 8000 VCSH SCT024 SCT080 TX31/2321Z TN21/2312Z 
     BECMG2306/2308 00000KT 9999 NSW SCT024 SCT080 
     BECMG 2315/2317 28006KT
       
TAF MHRO 222225Z 2300/2324 00000KT 9999 SCT024 TX29/2318Z TN25/2312Z 
     BECMG 2302/2304 00000KT 
     BECMG 2314/2316 35004KT 6000 VCSH SC020TCU SCT080 
     BECMG 2318/2320 9999 NSW
       
TAF MHTG 222225Z 2300/2324 36004KT 8000 VCSH SCT028TCU FEW030CB SCT080 TX28/2320Z TN13/2312Z 
     BECMG 2306/2308 9999 NSW SCT024 SCT070 
     BECMG 2315/2317 SCT028 
     BECMG 2319/2321 SCT032